sensor_id;sensor_type;location;lat;lon;timestamp;temperature;humidity
17007;DHT22;8620;51.168;4.154;2022-07-22T00:04:20;17.00;99.90
17007;DHT22;8620;51.168;4.154;2022-07-22T00:07:20;16.90;99.90
17007;DHT22;8620;51.168;4.154;2022-07-22T00:10:07;17.00;99.90
17007;DHT22;8620;51.168;4.154;2022-07-22T00:13:14;17.10;99.90
17007;DHT22;8620;51.168;4.154;2022-07-22T00:16:25;17.20;99.90
17007;DHT22;8620;51.168;4.154;2022-07-22T00:19:27;17.00;99.90
17007;DHT22;8620;51.168;4.154;2022-07-22T00:22:12;16.90;99.90
17007;DHT22;8620;51.168;4.154;2022-07-22T00:24:56;16.90;99.90
17007;DHT22;8620;51.168;4.154;2022-07-22T00:27:57;17.00;99.90
17007;DHT22;8620;51.168;4.154;2022-07-22T00:30:58;16.90;99.90
17007;DHT22;8620;51.168;4.154;2022-07-22T00:36:50;16.80;99.90
17007;DHT22;8620;51.168;4.154;2022-07-22T00:39:51;16.80;99.90
17007;DHT22;8620;51.168;4.154;2022-07-22T00:42:54;16.80;99.90
17007;DHT22;8620;51.168;4.154;2022-07-22T00:45:55;16.70;99.90
17007;DHT22;8620;51.168;4.154;2022-07-22T00:48:59;16.70;99.90
17007;DHT22;8620;51.168;4.154;2022-07-22T00:52:03;16.70;99.90
17007;DHT22;8620;51.168;4.154;2022-07-22T00:54:49;16.70;99.90
17007;DHT22;8620;51.168;4.154;2022-07-22T00:57:38;16.70;99.90
17007;DHT22;8620;51.168;4.154;2022-07-22T01:00:42;16.80;99.90
17007;DHT22;8620;51.168;4.154;2022-07-22T01:03:29;16.80;99.90
17007;DHT22;8620;51.168;4.154;2022-07-22T01:06:30;16.90;99.90
17007;DHT22;8620;51.168;4.154;2022-07-22T01:09:31;16.80;99.90
17007;DHT22;8620;51.168;4.154;2022-07-22T01:12:26;16.70;99.90
17007;DHT22;8620;51.168;4.154;2022-07-22T01:15:10;16.70;99.90
17007;DHT22;8620;51.168;4.154;2022-07-22T01:18:00;16.90;99.90
17007;DHT22;8620;51.168;4.154;2022-07-22T01:20:49;16.70;99.90
17007;DHT22;8620;51.168;4.154;2022-07-22T01:23:50;16.90;99.90
17007;DHT22;8620;51.168;4.154;2022-07-22T01:29:55;17.10;99.90
17007;DHT22;8620;51.168;4.154;2022-07-22T01:32:39;17.20;99.90
17007;DHT22;8620;51.168;4.154;2022-07-22T01:35:43;17.20;99.90
17007;DHT22;8620;51.168;4.154;2022-07-22T01:38:32;17.00;99.90
17007;DHT22;8620;51.168;4.154;2022-07-22T01:44:22;16.80;99.90
17007;DHT22;8620;51.168;4.154;2022-07-22T01:47:08;16.70;99.90
17007;DHT22;8620;51.168;4.154;2022-07-22T01:49:59;16.90;99.90
17007;DHT22;8620;51.168;4.154;2022-07-22T01:55:52;17.00;99.90
17007;DHT22;8620;51.168;4.154;2022-07-22T01:58:39;17.00;99.90
17007;DHT22;8620;51.168;4.154;2022-07-22T02:01:26;16.80;99.90
17007;DHT22;8620;51.168;4.154;2022-07-22T02:04:04;16.60;99.90
17007;DHT22;8620;51.168;4.154;2022-07-22T02:07:39;16.60;99.90
17007;DHT22;8620;51.168;4.154;2022-07-22T02:11:24;16.60;99.90
17007;DHT22;8620;51.168;4.154;2022-07-22T02:14:27;16.70;99.90
17007;DHT22;8620;51.168;4.154;2022-07-22T02:20:57;16.70;99.90
17007;DHT22;8620;51.168;4.154;2022-07-22T02:23:48;16.70;99.90
17007;DHT22;8620;51.168;4.154;2022-07-22T02:27:26;16.80;99.90
17007;DHT22;8620;51.168;4.154;2022-07-22T02:33:58;16.00;99.90
17007;DHT22;8620;51.168;4.154;2022-07-22T02:36:59;15.70;99.90
17007;DHT22;8620;51.168;4.154;2022-07-22T02:39:52;15.70;99.90
17007;DHT22;8620;51.168;4.154;2022-07-22T02:46:03;15.70;99.90
17007;DHT22;8620;51.168;4.154;2022-07-22T02:50:03;15.60;99.90
17007;DHT22;8620;51.168;4.154;2022-07-22T02:53:13;15.60;99.90
17007;DHT22;8620;51.168;4.154;2022-07-22T02:56:27;15.60;99.90
17007;DHT22;8620;51.168;4.154;2022-07-22T02:59:40;15.50;99.90
17007;DHT22;8620;51.168;4.154;2022-07-22T03:02:57;15.70;99.90
17007;DHT22;8620;51.168;4.154;2022-07-22T03:05:50;15.80;99.90
17007;DHT22;8620;51.168;4.154;2022-07-22T03:08:41;15.70;99.90
17007;DHT22;8620;51.168;4.154;2022-07-22T03:11:24;15.40;99.90
17007;DHT22;8620;51.168;4.154;2022-07-22T03:14:15;15.00;99.90
17007;DHT22;8620;51.168;4.154;2022-07-22T03:16:50;15.30;99.90
17007;DHT22;8620;51.168;4.154;2022-07-22T03:19:55;15.40;99.90
17007;DHT22;8620;51.168;4.154;2022-07-22T03:22:39;15.30;99.90
17007;DHT22;8620;51.168;4.154;2022-07-22T03:25:25;15.30;99.90
17007;DHT22;8620;51.168;4.154;2022-07-22T03:28:22;15.20;99.90
17007;DHT22;8620;51.168;4.154;2022-07-22T03:31:14;15.30;99.90
17007;DHT22;8620;51.168;4.154;2022-07-22T03:45:05;15.10;99.90
17007;DHT22;8620;51.168;4.154;2022-07-22T03:47:52;15.10;99.90
17007;DHT22;8620;51.168;4.154;2022-07-22T03:50:43;15.20;99.90
17007;DHT22;8620;51.168;4.154;2022-07-22T03:53:48;15.20;99.90
17007;DHT22;8620;51.168;4.154;2022-07-22T03:59:43;15.20;99.90
17007;DHT22;8620;51.168;4.154;2022-07-22T04:02:52;15.00;99.90
17007;DHT22;8620;51.168;4.154;2022-07-22T04:05:35;15.00;99.90
17007;DHT22;8620;51.168;4.154;2022-07-22T04:08:21;15.10;99.90
17007;DHT22;8620;51.168;4.154;2022-07-22T04:10:54;15.20;99.90
17007;DHT22;8620;51.168;4.154;2022-07-22T04:13:41;15.00;99.90
17007;DHT22;8620;51.168;4.154;2022-07-22T04:19:53;15.40;99.90
17007;DHT22;8620;51.168;4.154;2022-07-22T04:22:51;15.50;99.90
17007;DHT22;8620;51.168;4.154;2022-07-22T04:38:24;15.80;99.90
17007;DHT22;8620;51.168;4.154;2022-07-22T05:00:56;18.70;99.90
17007;DHT22;8620;51.168;4.154;2022-07-22T05:08:36;20.00;99.90
17007;DHT22;8620;51.168;4.154;2022-07-22T05:11:14;20.30;99.90
17007;DHT22;8620;51.168;4.154;2022-07-22T05:14:22;20.60;99.90
17007;DHT22;8620;51.168;4.154;2022-07-22T05:17:15;21.10;99.90
17007;DHT22;8620;51.168;4.154;2022-07-22T05:20:25;21.80;99.90
17007;DHT22;8620;51.168;4.154;2022-07-22T05:23:30;22.50;99.90
17007;DHT22;8620;51.168;4.154;2022-07-22T05:26:54;23.30;99.90
17007;DHT22;8620;51.168;4.154;2022-07-22T05:29:46;23.90;99.90
17007;DHT22;8620;51.168;4.154;2022-07-22T05:32:36;24.60;99.90
17007;DHT22;8620;51.168;4.154;2022-07-22T05:35:20;24.90;99.90
17007;DHT22;8620;51.168;4.154;2022-07-22T05:38:13;24.50;99.90
17007;DHT22;8620;51.168;4.154;2022-07-22T05:41:05;23.40;99.90
17007;DHT22;8620;51.168;4.154;2022-07-22T05:44:11;22.70;99.90
17007;DHT22;8620;51.168;4.154;2022-07-22T05:47:27;23.20;99.90
17007;DHT22;8620;51.168;4.154;2022-07-22T05:50:17;24.10;99.90
17007;DHT22;8620;51.168;4.154;2022-07-22T05:53:14;25.70;99.90
17007;DHT22;8620;51.168;4.154;2022-07-22T05:55:57;27.00;99.90
17007;DHT22;8620;51.168;4.154;2022-07-22T05:58:30;28.00;99.90
17007;DHT22;8620;51.168;4.154;2022-07-22T06:01:05;28.80;99.90
17007;DHT22;8620;51.168;4.154;2022-07-22T06:03:54;29.20;99.90
17007;DHT22;8620;51.168;4.154;2022-07-22T06:06:41;29.10;99.90
17007;DHT22;8620;51.168;4.154;2022-07-22T06:09:27;29.10;99.90
17007;DHT22;8620;51.168;4.154;2022-07-22T06:16:06;27.10;99.90
17007;DHT22;8620;51.168;4.154;2022-07-22T06:19:10;26.30;99.90
17007;DHT22;8620;51.168;4.154;2022-07-22T06:21:54;26.20;99.90
17007;DHT22;8620;51.168;4.154;2022-07-22T06:24:28;26.50;99.90
17007;DHT22;8620;51.168;4.154;2022-07-22T06:27:21;26.90;99.90
17007;DHT22;8620;51.168;4.154;2022-07-22T06:33:14;26.40;99.90
17007;DHT22;8620;51.168;4.154;2022-07-22T06:36:06;26.90;99.90
17007;DHT22;8620;51.168;4.154;2022-07-22T06:38:52;28.20;99.90
17007;DHT22;8620;51.168;4.154;2022-07-22T06:44:57;28.30;99.90
17007;DHT22;8620;51.168;4.154;2022-07-22T06:48:06;25.20;99.90
17007;DHT22;8620;51.168;4.154;2022-07-22T06:54:28;23.90;99.90
17007;DHT22;8620;51.168;4.154;2022-07-22T06:57:29;24.40;99.90
17007;DHT22;8620;51.168;4.154;2022-07-22T07:00:17;24.30;99.90
17007;DHT22;8620;51.168;4.154;2022-07-22T07:03:19;24.20;99.90
17007;DHT22;8620;51.168;4.154;2022-07-22T07:06:38;24.10;99.90
17007;DHT22;8620;51.168;4.154;2022-07-22T07:09:41;24.00;99.90
17007;DHT22;8620;51.168;4.154;2022-07-22T07:13:02;24.50;99.90
17007;DHT22;8620;51.168;4.154;2022-07-22T07:16:06;24.70;99.90
17007;DHT22;8620;51.168;4.154;2022-07-22T07:19:12;24.80;99.90
17007;DHT22;8620;51.168;4.154;2022-07-22T07:22:13;24.70;99.90
17007;DHT22;8620;51.168;4.154;2022-07-22T07:25:14;25.30;99.90
17007;DHT22;8620;51.168;4.154;2022-07-22T07:28:34;24.00;99.90
17007;DHT22;8620;51.168;4.154;2022-07-22T07:31:55;24.30;99.90
17007;DHT22;8620;51.168;4.154;2022-07-22T07:34:57;24.20;99.90
17007;DHT22;8620;51.168;4.154;2022-07-22T07:37:59;23.50;99.90
17007;DHT22;8620;51.168;4.154;2022-07-22T07:40:50;23.10;99.90
17007;DHT22;8620;51.168;4.154;2022-07-22T07:43:52;22.40;99.90
17007;DHT22;8620;51.168;4.154;2022-07-22T07:46:43;21.90;99.90
17007;DHT22;8620;51.168;4.154;2022-07-22T07:49:31;22.00;99.90
17007;DHT22;8620;51.168;4.154;2022-07-22T07:52:16;22.00;99.90
17007;DHT22;8620;51.168;4.154;2022-07-22T07:55:08;20.90;99.90
17007;DHT22;8620;51.168;4.154;2022-07-22T07:58:12;20.50;99.90
17007;DHT22;8620;51.168;4.154;2022-07-22T08:01:16;20.70;99.90
17007;DHT22;8620;51.168;4.154;2022-07-22T08:04:17;21.80;99.90
17007;DHT22;8620;51.168;4.154;2022-07-22T08:10:24;23.10;99.90
17007;DHT22;8620;51.168;4.154;2022-07-22T08:13:42;22.40;99.90
17007;DHT22;8620;51.168;4.154;2022-07-22T08:16:25;21.90;99.90
17007;DHT22;8620;51.168;4.154;2022-07-22T08:18:53;21.20;99.90
17007;DHT22;8620;51.168;4.154;2022-07-22T08:21:39;20.70;99.90
17007;DHT22;8620;51.168;4.154;2022-07-22T08:24:39;21.80;99.90
17007;DHT22;8620;51.168;4.154;2022-07-22T08:27:48;21.80;99.90
17007;DHT22;8620;51.168;4.154;2022-07-22T08:30:43;22.60;99.90
17007;DHT22;8620;51.168;4.154;2022-07-22T08:33:45;23.70;99.90
17007;DHT22;8620;51.168;4.154;2022-07-22T08:36:48;23.70;99.90
17007;DHT22;8620;51.168;4.154;2022-07-22T08:39:34;24.10;99.90
17007;DHT22;8620;51.168;4.154;2022-07-22T08:42:41;24.10;99.90
17007;DHT22;8620;51.168;4.154;2022-07-22T08:45:43;24.30;99.90
17007;DHT22;8620;51.168;4.154;2022-07-22T08:48:49;24.90;99.90
17007;DHT22;8620;51.168;4.154;2022-07-22T08:51:56;24.20;99.90
17007;DHT22;8620;51.168;4.154;2022-07-22T08:58:06;22.90;99.90
17007;DHT22;8620;51.168;4.154;2022-07-22T09:01:11;22.60;99.90
17007;DHT22;8620;51.168;4.154;2022-07-22T09:06:33;23.10;99.90
17007;DHT22;8620;51.168;4.154;2022-07-22T09:09:28;23.10;99.90
17007;DHT22;8620;51.168;4.154;2022-07-22T09:15:55;22.40;99.90
17007;DHT22;8620;51.168;4.154;2022-07-22T09:18:50;22.00;99.90
17007;DHT22;8620;51.168;4.154;2022-07-22T09:21:41;22.40;99.90
17007;DHT22;8620;51.168;4.154;2022-07-22T09:24:33;22.10;99.90
17007;DHT22;8620;51.168;4.154;2022-07-22T09:27:26;21.80;99.90
17007;DHT22;8620;51.168;4.154;2022-07-22T09:30:17;22.20;99.90
17007;DHT22;8620;51.168;4.154;2022-07-22T09:33:07;22.70;99.90
17007;DHT22;8620;51.168;4.154;2022-07-22T09:36:00;23.40;99.90
17007;DHT22;8620;51.168;4.154;2022-07-22T09:38:57;24.50;99.90
17007;DHT22;8620;51.168;4.154;2022-07-22T09:42:01;23.50;99.90
17007;DHT22;8620;51.168;4.154;2022-07-22T09:45:09;24.60;99.90
17007;DHT22;8620;51.168;4.154;2022-07-22T09:48:13;25.30;99.90
17007;DHT22;8620;51.168;4.154;2022-07-22T09:51:37;26.00;99.90
17007;DHT22;8620;51.168;4.154;2022-07-22T09:54:56;27.50;99.90
17007;DHT22;8620;51.168;4.154;2022-07-22T09:58:15;28.50;99.90
17007;DHT22;8620;51.168;4.154;2022-07-22T10:01:04;27.00;99.90
17007;DHT22;8620;51.168;4.154;2022-07-22T10:03:52;26.70;99.90
17007;DHT22;8620;51.168;4.154;2022-07-22T10:06:40;26.60;99.90
17007;DHT22;8620;51.168;4.154;2022-07-22T10:09:26;25.40;99.90
17007;DHT22;8620;51.168;4.154;2022-07-22T10:12:29;26.00;99.90
17007;DHT22;8620;51.168;4.154;2022-07-22T10:15:21;27.10;99.90
17007;DHT22;8620;51.168;4.154;2022-07-22T10:18:24;27.30;99.90
17007;DHT22;8620;51.168;4.154;2022-07-22T10:33:31;24.60;99.90
17007;DHT22;8620;51.168;4.154;2022-07-22T10:36:35;24.40;99.90
17007;DHT22;8620;51.168;4.154;2022-07-22T10:39:38;25.00;99.90
17007;DHT22;8620;51.168;4.154;2022-07-22T10:43:26;24.30;99.90
17007;DHT22;8620;51.168;4.154;2022-07-22T10:46:16;24.40;99.90
17007;DHT22;8620;51.168;4.154;2022-07-22T10:49:31;24.80;99.90
17007;DHT22;8620;51.168;4.154;2022-07-22T10:52:50;24.70;99.90
17007;DHT22;8620;51.168;4.154;2022-07-22T10:56:13;24.10;99.90
17007;DHT22;8620;51.168;4.154;2022-07-22T10:59:06;23.80;99.90
17007;DHT22;8620;51.168;4.154;2022-07-22T11:01:58;24.10;99.90
17007;DHT22;8620;51.168;4.154;2022-07-22T11:08:07;25.10;99.90
17007;DHT22;8620;51.168;4.154;2022-07-22T11:11:11;24.70;99.90
17007;DHT22;8620;51.168;4.154;2022-07-22T11:14:08;25.00;99.90
17007;DHT22;8620;51.168;4.154;2022-07-22T11:17:21;24.10;99.90
17007;DHT22;8620;51.168;4.154;2022-07-22T11:24:11;24.20;99.90
17007;DHT22;8620;51.168;4.154;2022-07-22T11:27:35;24.80;99.90
17007;DHT22;8620;51.168;4.154;2022-07-22T11:30:34;24.40;99.90
17007;DHT22;8620;51.168;4.154;2022-07-22T11:33:16;24.10;99.90
17007;DHT22;8620;51.168;4.154;2022-07-22T11:43:49;24.40;99.90
17007;DHT22;8620;51.168;4.154;2022-07-22T11:46:55;24.70;99.90
17007;DHT22;8620;51.168;4.154;2022-07-22T11:50:05;24.70;99.90
17007;DHT22;8620;51.168;4.154;2022-07-22T11:56:40;23.70;99.90
17007;DHT22;8620;51.168;4.154;2022-07-22T12:03:00;24.00;99.90
17007;DHT22;8620;51.168;4.154;2022-07-22T12:05:45;23.90;99.90
17007;DHT22;8620;51.168;4.154;2022-07-22T12:08:17;23.80;99.90
17007;DHT22;8620;51.168;4.154;2022-07-22T12:25:12;23.10;99.90
17007;DHT22;8620;51.168;4.154;2022-07-22T12:28:15;23.30;99.90
17007;DHT22;8620;51.168;4.154;2022-07-22T12:31:01;24.20;99.90
17007;DHT22;8620;51.168;4.154;2022-07-22T12:33:50;24.60;99.90
17007;DHT22;8620;51.168;4.154;2022-07-22T12:39:25;23.70;99.90
17007;DHT22;8620;51.168;4.154;2022-07-22T12:42:17;23.70;99.90
17007;DHT22;8620;51.168;4.154;2022-07-22T13:16:57;24.10;99.90
17007;DHT22;8620;51.168;4.154;2022-07-22T13:19:49;24.70;99.90
17007;DHT22;8620;51.168;4.154;2022-07-22T13:26:00;23.70;99.90
17007;DHT22;8620;51.168;4.154;2022-07-22T13:28:44;23.60;99.90
17007;DHT22;8620;51.168;4.154;2022-07-22T13:31:51;23.40;99.90
17007;DHT22;8620;51.168;4.154;2022-07-22T13:34:19;23.20;99.90
17007;DHT22;8620;51.168;4.154;2022-07-22T13:36:51;23.20;99.90
17007;DHT22;8620;51.168;4.154;2022-07-22T13:39:25;23.30;99.90
17007;DHT22;8620;51.168;4.154;2022-07-22T13:42:10;23.20;99.90
17007;DHT22;8620;51.168;4.154;2022-07-22T13:44:58;23.40;99.90
17007;DHT22;8620;51.168;4.154;2022-07-22T13:47:47;23.20;99.90
17007;DHT22;8620;51.168;4.154;2022-07-22T13:54:01;24.10;99.90
17007;DHT22;8620;51.168;4.154;2022-07-22T13:56:50;24.60;99.90
17007;DHT22;8620;51.168;4.154;2022-07-22T13:59:55;24.40;99.90
17007;DHT22;8620;51.168;4.154;2022-07-22T14:02:37;23.90;99.90
17007;DHT22;8620;51.168;4.154;2022-07-22T14:05:23;23.60;99.90
17007;DHT22;8620;51.168;4.154;2022-07-22T14:07:59;23.10;99.90
17007;DHT22;8620;51.168;4.154;2022-07-22T14:10:38;23.20;99.90
17007;DHT22;8620;51.168;4.154;2022-07-22T14:13:21;23.70;99.90
17007;DHT22;8620;51.168;4.154;2022-07-22T14:16:11;23.70;99.90
17007;DHT22;8620;51.168;4.154;2022-07-22T14:21:37;23.30;99.90
17007;DHT22;8620;51.168;4.154;2022-07-22T14:24:28;23.50;99.90
17007;DHT22;8620;51.168;4.154;2022-07-22T14:27:28;23.80;99.90
17007;DHT22;8620;51.168;4.154;2022-07-22T14:30:22;24.10;99.90
17007;DHT22;8620;51.168;4.154;2022-07-22T14:33:14;24.40;99.90
17007;DHT22;8620;51.168;4.154;2022-07-22T14:36:13;24.20;99.90
17007;DHT22;8620;51.168;4.154;2022-07-22T14:39:16;23.70;99.90
17007;DHT22;8620;51.168;4.154;2022-07-22T14:42:12;23.80;99.90
17007;DHT22;8620;51.168;4.154;2022-07-22T14:45:05;23.80;99.90
17007;DHT22;8620;51.168;4.154;2022-07-22T14:48:01;23.60;99.90
17007;DHT22;8620;51.168;4.154;2022-07-22T14:54:04;23.40;99.90
17007;DHT22;8620;51.168;4.154;2022-07-22T14:57:30;23.70;99.90
17007;DHT22;8620;51.168;4.154;2022-07-22T15:00:11;23.60;99.90
17007;DHT22;8620;51.168;4.154;2022-07-22T15:03:02;23.20;99.90
17007;DHT22;8620;51.168;4.154;2022-07-22T15:05:54;22.90;99.90
17007;DHT22;8620;51.168;4.154;2022-07-22T15:08:35;23.20;99.90
17007;DHT22;8620;51.168;4.154;2022-07-22T15:11:33;23.90;99.90
17007;DHT22;8620;51.168;4.154;2022-07-22T15:14:33;24.00;99.90
17007;DHT22;8620;51.168;4.154;2022-07-22T15:17:19;23.90;99.90
17007;DHT22;8620;51.168;4.154;2022-07-22T15:19:48;23.70;99.90
17007;DHT22;8620;51.168;4.154;2022-07-22T15:22:18;23.70;99.90
17007;DHT22;8620;51.168;4.154;2022-07-22T15:24:51;23.60;99.90
17007;DHT22;8620;51.168;4.154;2022-07-22T15:27:30;23.70;99.90
17007;DHT22;8620;51.168;4.154;2022-07-22T15:30:35;23.80;99.90
17007;DHT22;8620;51.168;4.154;2022-07-22T15:33:28;23.80;99.90
17007;DHT22;8620;51.168;4.154;2022-07-22T15:36:03;23.60;99.90
17007;DHT22;8620;51.168;4.154;2022-07-22T15:38:44;23.90;99.90
17007;DHT22;8620;51.168;4.154;2022-07-22T15:41:39;23.30;99.90
17007;DHT22;8620;51.168;4.154;2022-07-22T15:44:18;23.20;99.90
17007;DHT22;8620;51.168;4.154;2022-07-22T15:47:04;23.20;99.90
17007;DHT22;8620;51.168;4.154;2022-07-22T15:49:48;23.20;99.90
17007;DHT22;8620;51.168;4.154;2022-07-22T15:52:49;23.40;99.90
17007;DHT22;8620;51.168;4.154;2022-07-22T15:55:47;23.50;99.90
17007;DHT22;8620;51.168;4.154;2022-07-22T15:58:37;23.40;99.90
17007;DHT22;8620;51.168;4.154;2022-07-22T16:01:44;23.10;99.90
17007;DHT22;8620;51.168;4.154;2022-07-22T16:04:24;23.10;99.90
17007;DHT22;8620;51.168;4.154;2022-07-22T16:07:20;23.20;99.90
17007;DHT22;8620;51.168;4.154;2022-07-22T16:10:12;23.00;99.90
17007;DHT22;8620;51.168;4.154;2022-07-22T16:12:59;22.40;99.90
17007;DHT22;8620;51.168;4.154;2022-07-22T16:15:48;22.40;99.90
17007;DHT22;8620;51.168;4.154;2022-07-22T16:18:39;22.20;99.90
17007;DHT22;8620;51.168;4.154;2022-07-22T16:21:32;22.20;99.90
17007;DHT22;8620;51.168;4.154;2022-07-22T16:24:28;22.10;99.90
17007;DHT22;8620;51.168;4.154;2022-07-22T16:30:41;22.00;99.90
17007;DHT22;8620;51.168;4.154;2022-07-22T16:33:24;22.20;99.90
17007;DHT22;8620;51.168;4.154;2022-07-22T16:36:13;22.30;99.90
17007;DHT22;8620;51.168;4.154;2022-07-22T16:39:10;22.50;99.90
17007;DHT22;8620;51.168;4.154;2022-07-22T16:42:12;22.60;99.90
17007;DHT22;8620;51.168;4.154;2022-07-22T16:44:58;22.60;99.90
17007;DHT22;8620;51.168;4.154;2022-07-22T16:47:47;22.50;99.90
17007;DHT22;8620;51.168;4.154;2022-07-22T16:50:36;22.50;99.90
17007;DHT22;8620;51.168;4.154;2022-07-22T16:53:06;22.70;99.90
17007;DHT22;8620;51.168;4.154;2022-07-22T16:55:36;22.50;99.90
17007;DHT22;8620;51.168;4.154;2022-07-22T16:58:18;22.60;99.90
17007;DHT22;8620;51.168;4.154;2022-07-22T17:01:04;22.50;99.90
17007;DHT22;8620;51.168;4.154;2022-07-22T17:03:34;22.60;99.90
17007;DHT22;8620;51.168;4.154;2022-07-22T17:06:35;22.50;99.90
17007;DHT22;8620;51.168;4.154;2022-07-22T17:09:45;22.20;99.90
17007;DHT22;8620;51.168;4.154;2022-07-22T17:13:09;21.90;99.90
17007;DHT22;8620;51.168;4.154;2022-07-22T17:16:10;21.60;99.90
17007;DHT22;8620;51.168;4.154;2022-07-22T17:19:32;21.80;99.90
17007;DHT22;8620;51.168;4.154;2022-07-22T17:22:34;22.00;99.90
17007;DHT22;8620;51.168;4.154;2022-07-22T17:25:39;21.80;99.90
17007;DHT22;8620;51.168;4.154;2022-07-22T17:35:09;22.20;99.90
17007;DHT22;8620;51.168;4.154;2022-07-22T17:41:46;22.10;99.90
17007;DHT22;8620;51.168;4.154;2022-07-22T17:45:16;21.90;99.90
17007;DHT22;8620;51.168;4.154;2022-07-22T17:48:13;21.80;99.90
17007;DHT22;8620;51.168;4.154;2022-07-22T17:51:04;21.70;99.90
17007;DHT22;8620;51.168;4.154;2022-07-22T17:57:47;20.70;99.90
17007;DHT22;8620;51.168;4.154;2022-07-22T18:03:51;21.10;99.90
17007;DHT22;8620;51.168;4.154;2022-07-22T18:06:51;21.30;99.90
17007;DHT22;8620;51.168;4.154;2022-07-22T18:13:04;21.40;99.90
17007;DHT22;8620;51.168;4.154;2022-07-22T18:16:28;21.50;99.90
17007;DHT22;8620;51.168;4.154;2022-07-22T18:19:34;21.60;99.90
17007;DHT22;8620;51.168;4.154;2022-07-22T18:22:35;21.60;99.90
17007;DHT22;8620;51.168;4.154;2022-07-22T18:26:19;21.30;99.90
17007;DHT22;8620;51.168;4.154;2022-07-22T18:29:39;20.90;99.90
17007;DHT22;8620;51.168;4.154;2022-07-22T18:32:43;20.80;99.90
17007;DHT22;8620;51.168;4.154;2022-07-22T18:35:44;20.80;99.90
17007;DHT22;8620;51.168;4.154;2022-07-22T18:38:57;20.80;99.90
17007;DHT22;8620;51.168;4.154;2022-07-22T18:42:06;21.10;99.90
17007;DHT22;8620;51.168;4.154;2022-07-22T18:45:07;21.50;99.90
17007;DHT22;8620;51.168;4.154;2022-07-22T18:48:08;21.70;99.90
17007;DHT22;8620;51.168;4.154;2022-07-22T18:51:13;21.80;99.90
17007;DHT22;8620;51.168;4.154;2022-07-22T18:54:21;21.70;99.90
17007;DHT22;8620;51.168;4.154;2022-07-22T18:57:22;21.00;99.90
17007;DHT22;8620;51.168;4.154;2022-07-22T19:00:16;20.80;99.90
17007;DHT22;8620;51.168;4.154;2022-07-22T19:06:26;20.90;99.90
17007;DHT22;8620;51.168;4.154;2022-07-22T19:09:19;21.20;99.90
17007;DHT22;8620;51.168;4.154;2022-07-22T19:12:25;21.30;99.90
17007;DHT22;8620;51.168;4.154;2022-07-22T19:15:16;21.10;99.90
17007;DHT22;8620;51.168;4.154;2022-07-22T19:18:23;21.00;99.90
17007;DHT22;8620;51.168;4.154;2022-07-22T19:21:31;20.90;99.90
17007;DHT22;8620;51.168;4.154;2022-07-22T19:24:35;21.00;99.90
17007;DHT22;8620;51.168;4.154;2022-07-22T19:27:35;21.10;99.90
17007;DHT22;8620;51.168;4.154;2022-07-22T19:30:37;21.30;99.90
17007;DHT22;8620;51.168;4.154;2022-07-22T19:33:40;21.40;99.90
17007;DHT22;8620;51.168;4.154;2022-07-22T19:37:01;21.50;99.90
17007;DHT22;8620;51.168;4.154;2022-07-22T19:40:05;21.50;99.90
17007;DHT22;8620;51.168;4.154;2022-07-22T19:43:10;21.60;99.90
17007;DHT22;8620;51.168;4.154;2022-07-22T19:46:14;21.80;99.90
17007;DHT22;8620;51.168;4.154;2022-07-22T19:49:33;21.50;99.90
17007;DHT22;8620;51.168;4.154;2022-07-22T19:53:01;21.20;99.90
17007;DHT22;8620;51.168;4.154;2022-07-22T19:55:34;21.10;99.90
17007;DHT22;8620;51.168;4.154;2022-07-22T19:58:17;20.90;99.90
17007;DHT22;8620;51.168;4.154;2022-07-22T20:01:00;21.00;99.90
17007;DHT22;8620;51.168;4.154;2022-07-22T20:03:41;21.10;99.90
17007;DHT22;8620;51.168;4.154;2022-07-22T20:07:06;21.10;99.90
17007;DHT22;8620;51.168;4.154;2022-07-22T20:09:59;20.90;99.90
17007;DHT22;8620;51.168;4.154;2022-07-22T20:15:56;20.90;99.90
17007;DHT22;8620;51.168;4.154;2022-07-22T20:19:04;20.90;99.90
17007;DHT22;8620;51.168;4.154;2022-07-22T20:25:34;20.90;99.90
17007;DHT22;8620;51.168;4.154;2022-07-22T20:40:38;20.30;99.90
17007;DHT22;8620;51.168;4.154;2022-07-22T20:43:11;20.70;99.90
17007;DHT22;8620;51.168;4.154;2022-07-22T20:46:04;20.70;99.90
17007;DHT22;8620;51.168;4.154;2022-07-22T20:49:08;20.60;99.90
17007;DHT22;8620;51.168;4.154;2022-07-22T20:51:59;20.60;99.90
17007;DHT22;8620;51.168;4.154;2022-07-22T20:54:55;20.50;99.90
17007;DHT22;8620;51.168;4.154;2022-07-22T20:57:44;20.50;99.90
17007;DHT22;8620;51.168;4.154;2022-07-22T21:00:45;20.70;99.90
17007;DHT22;8620;51.168;4.154;2022-07-22T21:03:29;20.40;99.90
17007;DHT22;8620;51.168;4.154;2022-07-22T21:06:15;20.30;99.90
17007;DHT22;8620;51.168;4.154;2022-07-22T21:09:04;20.20;99.90
17007;DHT22;8620;51.168;4.154;2022-07-22T21:11:35;20.10;99.90
17007;DHT22;8620;51.168;4.154;2022-07-22T21:14:10;19.80;99.90
17007;DHT22;8620;51.168;4.154;2022-07-22T21:17:05;19.50;99.90
17007;DHT22;8620;51.168;4.154;2022-07-22T21:20:05;19.50;99.90
17007;DHT22;8620;51.168;4.154;2022-07-22T21:22:43;19.70;99.90
17007;DHT22;8620;51.168;4.154;2022-07-22T21:25:30;19.60;99.90
17007;DHT22;8620;51.168;4.154;2022-07-22T21:28:05;19.50;99.90
17007;DHT22;8620;51.168;4.154;2022-07-22T21:31:01;19.90;99.90
17007;DHT22;8620;51.168;4.154;2022-07-22T21:33:51;20.00;99.90
17007;DHT22;8620;51.168;4.154;2022-07-22T21:36:38;20.10;99.90
17007;DHT22;8620;51.168;4.154;2022-07-22T21:39:13;19.90;99.90
17007;DHT22;8620;51.168;4.154;2022-07-22T21:41:57;19.70;99.90
17007;DHT22;8620;51.168;4.154;2022-07-22T21:44:48;19.80;99.90
17007;DHT22;8620;51.168;4.154;2022-07-22T21:48:26;19.80;99.90
17007;DHT22;8620;51.168;4.154;2022-07-22T21:51:19;19.50;99.90
17007;DHT22;8620;51.168;4.154;2022-07-22T21:56:53;19.60;99.90
17007;DHT22;8620;51.168;4.154;2022-07-22T21:59:28;19.10;99.90
17007;DHT22;8620;51.168;4.154;2022-07-22T22:02:00;18.90;99.90
17007;DHT22;8620;51.168;4.154;2022-07-22T22:04:47;18.80;99.90
17007;DHT22;8620;51.168;4.154;2022-07-22T22:07:46;18.80;99.90
17007;DHT22;8620;51.168;4.154;2022-07-22T22:14:22;19.20;99.90
17007;DHT22;8620;51.168;4.154;2022-07-22T22:16:57;18.90;99.90
17007;DHT22;8620;51.168;4.154;2022-07-22T22:19:40;19.20;99.90
17007;DHT22;8620;51.168;4.154;2022-07-22T22:33:28;18.20;99.90
17007;DHT22;8620;51.168;4.154;2022-07-22T22:36:42;18.10;99.90
17007;DHT22;8620;51.168;4.154;2022-07-22T22:39:45;18.10;99.90
17007;DHT22;8620;51.168;4.154;2022-07-22T22:42:32;18.10;99.90
17007;DHT22;8620;51.168;4.154;2022-07-22T22:49:15;18.20;99.90
17007;DHT22;8620;51.168;4.154;2022-07-22T22:52:27;18.10;99.90
17007;DHT22;8620;51.168;4.154;2022-07-22T22:55:44;18.00;99.90
17007;DHT22;8620;51.168;4.154;2022-07-22T22:59:10;18.10;99.90
17007;DHT22;8620;51.168;4.154;2022-07-22T23:10:06;18.50;99.90
17007;DHT22;8620;51.168;4.154;2022-07-22T23:12:46;18.60;99.90
17007;DHT22;8620;51.168;4.154;2022-07-22T23:15:14;18.70;99.90
17007;DHT22;8620;51.168;4.154;2022-07-22T23:18:23;18.40;99.90
17007;DHT22;8620;51.168;4.154;2022-07-22T23:21:05;18.40;99.90
17007;DHT22;8620;51.168;4.154;2022-07-22T23:27:19;18.70;99.90